Terminal Aerodrome Forecast
Issued by NWS

Home | Current Version | Previous Version | Text Only | Print | Product List | Glossary On
Versions: 1 2 3 4 5 6 7 8 9 10 11 12 13 14 15 16 17 18 19 20 21 22 23 24 25 26 27 28 29
000
FTUS45 KPSR 302020 AAA
TAFPHX
TAF AMD
KPHX 302020Z 3020/3118 VRB05KT P6SM FEW080 SCT150
     FM302200 27007KT P6SM FEW100 BKN250
     FM310400 12014KT P6SM SCT110 BKN250
     FM310600 11007KT P6SM SCT120 BKN250=

USA.gov is the U.S. government's official web portal to all federal, state and local government web resources and services.